createdAt,value
2018-12-16T00:00:58.280Z,1018.86
2018-12-16T00:01:58.267Z,1018.87
2018-12-16T00:02:58.259Z,1018.88
2018-12-16T00:03:58.249Z,1018.82
2018-12-16T00:04:58.236Z,1018.87
2018-12-16T00:05:58.226Z,1018.83
2018-12-16T00:06:58.214Z,1018.84
2018-12-16T00:07:58.208Z,1018.80
2018-12-16T00:08:58.198Z,1018.85
2018-12-16T00:09:58.189Z,1018.78
2018-12-16T00:10:58.173Z,1018.79
2018-12-16T00:11:58.162Z,1018.78
2018-12-16T00:12:58.155Z,1018.74
2018-12-16T00:13:58.145Z,1018.73
2018-12-16T00:14:58.131Z,1018.71
2018-12-16T00:15:58.122Z,1018.72
2018-12-16T00:16:58.112Z,1018.72
2018-12-16T00:17:58.101Z,1018.67
2018-12-16T00:18:58.092Z,1018.70
2018-12-16T00:19:58.079Z,1018.62
2018-12-16T00:20:58.069Z,1018.65
2018-12-16T00:21:58.059Z,1018.65
2018-12-16T00:22:58.050Z,1018.69
2018-12-16T00:23:58.037Z,1018.66
2018-12-16T00:24:58.027Z,1018.62
2018-12-16T00:25:58.017Z,1018.71
2018-12-16T00:26:58.009Z,1018.75
2018-12-16T00:27:57.996Z,1018.71
2018-12-16T00:28:57.983Z,1018.73
2018-12-16T00:29:57.975Z,1018.72
2018-12-16T00:30:57.963Z,1018.73
2018-12-16T00:31:57.954Z,1018.68
2018-12-16T00:32:57.943Z,1018.66
2018-12-16T00:33:57.933Z,1018.64
2018-12-16T00:34:57.924Z,1018.66
2018-12-16T00:35:57.918Z,1018.67
2018-12-16T00:36:57.900Z,1018.64
2018-12-16T00:37:57.889Z,1018.62
2018-12-16T00:38:57.880Z,1018.60
2018-12-16T00:39:57.870Z,1018.58
2018-12-16T00:40:57.858Z,1018.58
2018-12-16T00:41:57.849Z,1018.56
2018-12-16T00:42:57.836Z,1018.56
2018-12-16T00:43:57.825Z,1018.55
2018-12-16T00:44:57.816Z,1018.57
2018-12-16T00:45:57.806Z,1018.54
2018-12-16T00:46:57.797Z,1018.50
2018-12-16T00:47:57.785Z,1018.51
2018-12-16T00:48:57.775Z,1018.52
2018-12-16T00:49:57.763Z,1018.51
2018-12-16T00:50:57.759Z,1018.38
2018-12-16T00:51:57.746Z,1018.47
2018-12-16T00:52:57.734Z,1018.41
2018-12-16T00:53:57.723Z,1018.45
2018-12-16T00:54:57.715Z,1018.44
2018-12-16T00:55:57.701Z,1018.39
2018-12-16T00:56:57.690Z,1018.39
2018-12-16T00:57:57.681Z,1018.33
2018-12-16T00:58:57.671Z,1018.33
2018-12-16T00:59:57.661Z,1018.32
2018-12-16T01:00:57.649Z,1018.31
2018-12-16T01:01:57.641Z,1018.32
2018-12-16T01:02:57.630Z,1018.28
2018-12-16T01:03:57.617Z,1018.29
2018-12-16T01:04:57.606Z,1018.38
2018-12-16T01:05:57.594Z,1018.25
2018-12-16T01:06:57.586Z,1018.26
2018-12-16T01:07:57.579Z,1018.26
2018-12-16T01:08:57.568Z,1018.25
2018-12-16T01:09:57.553Z,1018.25
2018-12-16T01:10:57.543Z,1018.23
2018-12-16T01:11:57.532Z,1018.22
2018-12-16T01:12:57.525Z,1018.24
2018-12-16T01:13:57.512Z,1018.21
2018-12-16T01:14:57.501Z,1018.20
2018-12-16T01:15:57.492Z,1018.22
2018-12-16T01:16:57.480Z,1018.22
2018-12-16T01:17:57.471Z,1018.18
2018-12-16T01:18:57.459Z,1018.15
2018-12-16T01:19:57.447Z,1018.13
2018-12-16T01:20:57.438Z,1018.16
2018-12-16T01:21:57.426Z,1018.12
2018-12-16T01:22:57.417Z,1018.12
2018-12-16T01:23:57.408Z,1018.15
2018-12-16T01:24:57.395Z,1018.15
2018-12-16T01:25:57.385Z,1018.11
2018-12-16T01:26:57.375Z,1018.16
2018-12-16T01:27:57.364Z,1018.09
2018-12-16T01:28:57.353Z,1018.06
2018-12-16T01:29:57.345Z,1018.06
2018-12-16T01:30:57.332Z,1018.00
2018-12-16T01:31:57.322Z,1018.04
2018-12-16T01:32:57.322Z,1017.99
2018-12-16T01:33:57.303Z,1017.98
2018-12-16T01:34:57.291Z,1017.94
2018-12-16T01:35:57.279Z,1017.93
2018-12-16T01:36:57.270Z,1017.94
2018-12-16T01:37:57.261Z,1017.92
2018-12-16T01:38:57.252Z,1017.93
2018-12-16T01:39:57.238Z,1017.92
2018-12-16T01:40:57.233Z,1017.88
2018-12-16T01:41:57.219Z,1017.89
2018-12-16T01:42:57.207Z,1017.90
2018-12-16T01:43:57.197Z,1017.96
2018-12-16T01:44:57.186Z,1017.89
2018-12-16T01:45:57.174Z,1017.84
2018-12-16T01:46:57.166Z,1017.80
2018-12-16T01:47:57.154Z,1017.76
2018-12-16T01:48:57.143Z,1017.75
2018-12-16T01:49:57.132Z,1017.72
2018-12-16T01:50:57.124Z,1017.74
2018-12-16T01:51:57.114Z,1017.70
2018-12-16T01:52:57.100Z,1017.71
2018-12-16T01:53:57.091Z,1017.64
2018-12-16T01:54:57.087Z,1017.64
2018-12-16T01:55:57.075Z,1017.61
2018-12-16T01:56:57.059Z,1017.62
2018-12-16T01:57:57.050Z,1017.57
2018-12-16T01:58:57.037Z,1017.56
2018-12-16T01:59:57.027Z,1017.56
2018-12-16T02:00:57.020Z,1017.60
2018-12-16T02:01:57.007Z,1017.58
2018-12-16T02:02:56.996Z,1017.53
2018-12-16T02:03:56.985Z,1017.51
2018-12-16T02:04:56.973Z,1017.51
2018-12-16T02:05:56.966Z,1017.45
2018-12-16T02:06:56.954Z,1017.42
2018-12-16T02:07:56.943Z,1017.40
2018-12-16T02:08:56.936Z,1017.35
2018-12-16T02:09:56.924Z,1017.34
2018-12-16T02:10:56.913Z,1017.30
2018-12-16T02:11:56.903Z,1017.32
2018-12-16T02:12:56.892Z,1017.36
2018-12-16T02:13:56.881Z,1017.34
2018-12-16T02:14:56.870Z,1017.39
2018-12-16T02:15:56.862Z,1017.35
2018-12-16T02:16:56.849Z,1017.34
2018-12-16T02:17:56.840Z,1017.31
2018-12-16T02:18:56.827Z,1017.30
2018-12-16T02:19:56.823Z,1017.30
2018-12-16T02:20:56.806Z,1017.32
2018-12-16T02:21:56.796Z,1017.27
2018-12-16T02:22:57.230Z,1017.30
2018-12-16T02:23:56.777Z,1017.27
2018-12-16T02:24:56.766Z,1017.17
2018-12-16T02:25:56.755Z,1017.22
2018-12-16T02:26:56.747Z,1017.29
2018-12-16T02:27:56.733Z,1017.25
2018-12-16T02:28:56.723Z,1017.16
2018-12-16T02:29:56.714Z,1017.13
2018-12-16T02:30:56.702Z,1017.20
2018-12-16T02:31:56.692Z,1017.18
2018-12-16T02:32:56.685Z,1017.22
2018-12-16T02:33:56.670Z,1017.20
2018-12-16T02:34:56.661Z,1017.15
2018-12-16T02:35:56.652Z,1017.09
2018-12-16T02:36:56.644Z,1017.08
2018-12-16T02:37:56.629Z,1017.01
2018-12-16T02:38:56.619Z,1017.03
2018-12-16T02:39:56.608Z,1017.01
2018-12-16T02:40:56.601Z,1016.95
2018-12-16T02:41:56.586Z,1017.06
2018-12-16T02:42:56.575Z,1017.05
2018-12-16T02:43:56.565Z,1017.00
2018-12-16T02:44:56.556Z,1017.02
2018-12-16T02:45:56.545Z,1017.05
2018-12-16T02:46:56.536Z,1017.05
2018-12-16T02:47:56.526Z,1017.00
2018-12-16T02:48:56.514Z,1016.99
2018-12-16T02:49:56.504Z,1016.98
2018-12-16T02:50:56.495Z,1016.99
2018-12-16T02:51:56.482Z,1017.01
2018-12-16T02:52:56.473Z,1017.00
2018-12-16T02:53:56.465Z,1017.01
2018-12-16T02:54:56.453Z,1017.02
2018-12-16T02:55:56.443Z,1017.02
2018-12-16T02:56:56.429Z,1017.03
2018-12-16T02:57:56.427Z,1017.03
2018-12-16T02:58:56.411Z,1016.98
2018-12-16T02:59:56.403Z,1016.93
2018-12-16T03:00:56.392Z,1016.93
2018-12-16T03:01:56.377Z,1016.95
2018-12-16T03:02:56.371Z,1016.98
2018-12-16T03:03:56.370Z,1016.97
2018-12-16T03:04:56.346Z,1016.93
2018-12-16T03:05:56.342Z,1016.93
2018-12-16T03:06:56.323Z,1016.87
2018-12-16T03:07:56.313Z,1016.85
2018-12-16T03:08:56.304Z,1016.82
2018-12-16T03:09:56.292Z,1016.80
2018-12-16T03:10:56.284Z,1016.83
2018-12-16T03:11:56.272Z,1016.81
2018-12-16T03:12:56.261Z,1016.78
2018-12-16T03:13:56.252Z,1016.80
2018-12-16T03:14:56.240Z,1016.72
2018-12-16T03:15:56.229Z,1016.69
2018-12-16T03:16:56.220Z,1016.76
2018-12-16T03:17:56.209Z,1016.73
2018-12-16T03:18:56.200Z,1016.73
2018-12-16T03:19:56.189Z,1016.71
2018-12-16T03:20:56.178Z,1016.65
2018-12-16T03:21:56.168Z,1016.68
2018-12-16T03:22:56.158Z,1016.64
2018-12-16T03:23:56.150Z,1016.69
2018-12-16T03:24:56.136Z,1016.65
2018-12-16T03:25:56.125Z,1016.61
2018-12-16T03:26:56.150Z,1016.56
2018-12-16T03:27:56.105Z,1016.60
2018-12-16T03:28:56.093Z,1016.59
2018-12-16T03:29:56.095Z,1016.64
2018-12-16T03:30:56.075Z,1016.59
2018-12-16T03:31:56.068Z,1016.57
2018-12-16T03:32:56.065Z,1016.62
2018-12-16T03:33:56.044Z,1016.58
2018-12-16T03:34:56.055Z,1016.62
2018-12-16T03:35:56.019Z,1016.54
2018-12-16T03:36:56.011Z,1016.53
2018-12-16T03:37:56.001Z,1016.48
2018-12-16T03:38:55.988Z,1016.44
2018-12-16T03:39:55.979Z,1016.43
2018-12-16T03:40:55.968Z,1016.48
2018-12-16T03:41:55.959Z,1016.50
2018-12-16T03:42:55.946Z,1016.55
2018-12-16T03:43:55.936Z,1016.49
2018-12-16T03:44:55.925Z,1016.48
2018-12-16T03:45:55.914Z,1016.46
2018-12-16T03:46:55.906Z,1016.47
2018-12-16T03:47:55.896Z,1016.45
2018-12-16T03:48:55.882Z,1016.48
2018-12-16T03:49:55.874Z,1016.48
2018-12-16T03:50:55.862Z,1016.41
2018-12-16T03:51:55.852Z,1016.43
2018-12-16T03:52:55.842Z,1016.40
2018-12-16T03:53:55.833Z,1016.44
2018-12-16T03:54:55.820Z,1016.42
2018-12-16T03:55:55.810Z,1016.41
2018-12-16T03:56:55.802Z,1016.46
2018-12-16T03:57:55.790Z,1016.45
2018-12-16T03:58:55.778Z,1016.38
2018-12-16T03:59:55.771Z,1016.40
2018-12-16T04:00:55.760Z,1016.42
2018-12-16T04:01:55.748Z,1016.32
2018-12-16T04:02:55.735Z,1016.40
2018-12-16T04:03:55.727Z,1016.38
2018-12-16T04:04:55.719Z,1016.34
2018-12-16T04:05:55.706Z,1016.38
2018-12-16T04:06:55.699Z,1016.38
2018-12-16T04:07:55.684Z,1016.35
2018-12-16T04:08:55.674Z,1016.37
2018-12-16T04:09:55.665Z,1016.35
2018-12-16T04:10:55.660Z,1016.35
2018-12-16T04:11:55.644Z,1016.27
2018-12-16T04:12:55.632Z,1016.32
2018-12-16T04:13:55.627Z,1016.14
2018-12-16T04:14:55.611Z,1016.24
2018-12-16T04:15:55.600Z,1016.19
2018-12-16T04:16:55.596Z,1016.19
2018-12-16T04:17:55.580Z,1016.15
2018-12-16T04:18:55.571Z,1016.18
2018-12-16T04:19:55.558Z,1016.11
2018-12-16T04:20:55.548Z,1016.02
2018-12-16T04:21:55.535Z,1016.08
2018-12-16T04:22:55.527Z,1016.04
2018-12-16T04:23:55.517Z,1016.01
2018-12-16T04:24:55.506Z,1015.97
2018-12-16T04:25:55.495Z,1015.99
2018-12-16T04:26:55.482Z,1015.98
2018-12-16T04:27:55.475Z,1015.95
2018-12-16T04:28:55.465Z,1015.91
2018-12-16T04:29:55.453Z,1015.93
2018-12-16T04:30:55.442Z,1015.91
2018-12-16T04:31:55.433Z,1015.87
2018-12-16T04:32:55.425Z,1015.86
2018-12-16T04:33:55.409Z,1015.84
2018-12-16T04:34:55.401Z,1015.77
2018-12-16T04:35:55.389Z,1015.80
2018-12-16T04:36:55.379Z,1015.76
2018-12-16T04:37:55.369Z,1015.72
2018-12-16T04:38:55.359Z,1015.72
2018-12-16T04:39:55.346Z,1015.66
2018-12-16T04:40:55.337Z,1015.74
2018-12-16T04:41:55.327Z,1015.70
2018-12-16T04:42:55.318Z,1015.70
2018-12-16T04:43:55.304Z,1015.68
2018-12-16T04:44:55.295Z,1015.68
2018-12-16T04:45:55.287Z,1015.68
2018-12-16T04:46:55.276Z,1015.67
2018-12-16T04:47:55.267Z,1015.69
2018-12-16T04:48:55.253Z,1015.67
2018-12-16T04:49:55.256Z,1015.61
2018-12-16T04:50:55.235Z,1015.61
2018-12-16T04:51:55.225Z,1015.56
2018-12-16T04:52:55.212Z,1015.58
2018-12-16T04:53:55.201Z,1015.56
2018-12-16T04:54:55.191Z,1015.60
2018-12-16T04:55:55.180Z,1015.56
2018-12-16T04:56:55.167Z,1015.58
2018-12-16T04:57:55.159Z,1015.55
2018-12-16T04:58:55.149Z,1015.50
2018-12-16T04:59:55.140Z,1015.56
2018-12-16T05:00:55.127Z,1015.52
2018-12-16T05:01:55.117Z,1015.55
2018-12-16T05:02:55.107Z,1015.49
2018-12-16T05:03:55.104Z,1015.56
2018-12-16T05:04:55.102Z,1015.55
2018-12-16T05:05:55.076Z,1015.55
2018-12-16T05:06:55.065Z,1015.52
2018-12-16T05:07:55.056Z,1015.53
2018-12-16T05:08:55.044Z,1015.48
2018-12-16T05:09:55.032Z,1015.49
2018-12-16T05:10:55.025Z,1015.42
2018-12-16T05:11:55.013Z,1015.44
2018-12-16T05:12:55.002Z,1015.45
2018-12-16T05:13:54.993Z,1015.44
2018-12-16T05:14:54.982Z,1015.44
2018-12-16T05:15:54.970Z,1015.39
2018-12-16T05:16:54.960Z,1015.40
2018-12-16T05:17:54.949Z,1015.36
2018-12-16T05:18:54.941Z,1015.28
2018-12-16T05:19:54.929Z,1015.23
2018-12-16T05:20:54.916Z,1015.24
2018-12-16T05:21:54.913Z,1015.23
2018-12-16T05:22:54.896Z,1015.17
2018-12-16T05:23:54.885Z,1015.19
2018-12-16T05:24:54.879Z,1015.14
2018-12-16T05:25:54.866Z,1015.16
2018-12-16T05:26:54.855Z,1015.12
2018-12-16T05:27:54.846Z,1015.07
2018-12-16T05:28:54.832Z,1015.04
2018-12-16T05:29:54.824Z,1015.04
2018-12-16T05:30:54.812Z,1015.03
2018-12-16T05:31:54.807Z,1015.03
2018-12-16T05:32:54.791Z,1015.01
2018-12-16T05:33:54.781Z,1014.96
2018-12-16T05:34:54.773Z,1014.96
2018-12-16T05:35:54.765Z,1014.97
2018-12-16T05:36:54.750Z,1015.08
2018-12-16T05:37:54.739Z,1014.93
2018-12-16T05:38:54.728Z,1014.89
2018-12-16T05:39:54.718Z,1014.93
2018-12-16T05:40:54.708Z,1014.90
2018-12-16T05:41:54.698Z,1014.84
2018-12-16T05:42:54.686Z,1014.82
2018-12-16T05:43:54.676Z,1014.85
2018-12-16T05:44:54.669Z,1014.80
2018-12-16T05:45:54.657Z,1014.77
2018-12-16T05:46:54.646Z,1014.75
2018-12-16T05:47:54.639Z,1014.79
2018-12-16T05:48:54.623Z,1014.76
2018-12-16T05:49:54.616Z,1014.77
2018-12-16T05:50:54.603Z,1014.73
2018-12-16T05:51:54.592Z,1014.74
2018-12-16T05:52:54.586Z,1014.72
2018-12-16T05:53:54.572Z,1014.71
2018-12-16T05:54:54.561Z,1014.76
2018-12-16T05:55:54.552Z,1014.75
2018-12-16T05:56:54.548Z,1014.73
2018-12-16T05:57:54.528Z,1014.76
2018-12-16T05:58:54.526Z,1014.73
2018-12-16T05:59:54.510Z,1014.74
2018-12-16T06:00:54.507Z,1014.69
2018-12-16T06:01:54.486Z,1014.72
2018-12-16T06:02:54.483Z,1014.74
2018-12-16T06:03:54.470Z,1014.76
2018-12-16T06:04:54.457Z,1014.73
2018-12-16T06:05:54.447Z,1014.73
2018-12-16T06:06:54.436Z,1014.70
2018-12-16T06:07:54.426Z,1014.72
2018-12-16T06:08:54.418Z,1014.70
2018-12-16T06:09:54.405Z,1014.70
2018-12-16T06:10:54.392Z,1014.67
2018-12-16T06:11:54.384Z,1014.70
2018-12-16T06:12:54.372Z,1014.65
2018-12-16T06:13:54.364Z,1014.67
2018-12-16T06:14:54.357Z,1014.65
2018-12-16T06:15:54.340Z,1014.56
2018-12-16T06:16:54.329Z,1014.62
2018-12-16T06:17:54.321Z,1014.58
2018-12-16T06:18:54.310Z,1014.53
2018-12-16T06:19:54.305Z,1014.56
2018-12-16T06:20:54.295Z,1014.62
2018-12-16T06:21:54.278Z,1014.49
2018-12-16T06:22:54.270Z,1014.54
2018-12-16T06:23:55.787Z,1014.51
2018-12-16T06:24:54.246Z,1014.54
2018-12-16T06:25:54.240Z,1014.47
2018-12-16T06:26:54.228Z,1014.47
2018-12-16T06:27:54.213Z,1014.53
2018-12-16T06:28:54.206Z,1014.46
2018-12-16T06:29:54.192Z,1014.50
2018-12-16T06:30:54.182Z,1014.45
2018-12-16T06:31:55.288Z,1014.46
2018-12-16T06:32:54.168Z,1014.47
2018-12-16T06:33:54.150Z,1014.41
2018-12-16T06:34:54.141Z,1014.43
2018-12-16T06:35:54.132Z,1014.46
2018-12-16T06:36:54.119Z,1014.46
2018-12-16T06:37:54.110Z,1014.40
2018-12-16T06:38:54.098Z,1014.45
2018-12-16T06:39:54.091Z,1014.41
2018-12-16T06:40:54.087Z,1014.42
2018-12-16T06:41:55.325Z,1014.44
2018-12-16T06:42:54.060Z,1014.47
2018-12-16T06:43:54.047Z,1014.44
2018-12-16T06:44:54.037Z,1014.40
2018-12-16T06:45:54.026Z,1014.37
2018-12-16T06:46:54.018Z,1014.38
2018-12-16T06:47:54.007Z,1014.33
2018-12-16T06:48:53.996Z,1014.31
2018-12-16T06:49:53.986Z,1014.27
2018-12-16T06:50:53.979Z,1014.25
2018-12-16T06:51:53.966Z,1014.20
2018-12-16T06:52:53.954Z,1014.24
2018-12-16T06:53:53.943Z,1014.16
2018-12-16T06:54:53.930Z,1014.21
2018-12-16T06:55:53.922Z,1014.13
2018-12-16T06:56:53.911Z,1014.19
2018-12-16T06:57:53.900Z,1014.14
2018-12-16T06:58:53.888Z,1014.12
2018-12-16T06:59:53.880Z,1014.10
2018-12-16T07:00:53.870Z,1014.13
2018-12-16T07:01:53.861Z,1014.05
2018-12-16T07:02:53.850Z,1014.05
2018-12-16T07:03:53.838Z,1014.02
2018-12-16T07:04:53.825Z,1014.01
2018-12-16T07:05:53.816Z,1014.01
2018-12-16T07:06:53.813Z,1014.02
2018-12-16T07:07:53.800Z,1014.03
2018-12-16T07:08:53.787Z,1014.00
2018-12-16T07:09:53.773Z,1013.98
2018-12-16T07:10:53.765Z,1014.02
2018-12-16T07:11:53.760Z,1014.02
2018-12-16T07:12:53.744Z,1014.04
2018-12-16T07:13:53.741Z,1014.07
2018-12-16T07:14:53.723Z,1014.08
2018-12-16T07:15:53.734Z,1014.08
2018-12-16T07:16:53.700Z,1014.11
2018-12-16T07:17:53.691Z,1014.16
2018-12-16T07:18:53.686Z,1014.20
2018-12-16T07:19:53.669Z,1014.19
2018-12-16T07:20:53.699Z,1014.22
2018-12-16T07:21:53.695Z,1014.33
2018-12-16T07:22:53.681Z,1014.30
2018-12-16T07:23:53.649Z,1014.39
2018-12-16T07:24:53.626Z,1014.34
2018-12-16T07:25:53.614Z,1014.39
2018-12-16T07:26:53.596Z,1014.40
2018-12-16T07:27:53.593Z,1014.41
2018-12-16T07:28:53.577Z,1014.45
2018-12-16T07:29:53.569Z,1014.43
2018-12-16T07:30:53.561Z,1014.38
2018-12-16T07:31:53.543Z,1014.40
2018-12-16T07:32:53.532Z,1014.37
2018-12-16T07:33:53.523Z,1014.32
2018-12-16T07:34:53.513Z,1014.32
2018-12-16T07:35:53.504Z,1014.33
2018-12-16T07:36:53.491Z,1014.33
2018-12-16T07:37:53.503Z,1014.34
2018-12-16T07:38:53.470Z,1014.30
2018-12-16T07:39:53.462Z,1014.34
2018-12-16T07:40:53.469Z,1014.33
2018-12-16T07:41:53.441Z,1014.32
2018-12-16T07:42:53.449Z,1014.33
2018-12-16T07:43:53.418Z,1014.31
2018-12-16T07:44:53.409Z,1014.36
2018-12-16T07:45:53.463Z,1014.34
2018-12-16T07:46:53.387Z,1014.34
2018-12-16T07:47:53.378Z,1014.35
2018-12-16T07:48:53.367Z,1014.38
2018-12-16T07:49:53.353Z,1014.35
2018-12-16T07:50:53.350Z,1014.30
2018-12-16T07:51:53.337Z,1014.33
2018-12-16T07:52:53.325Z,1014.30
2018-12-16T07:53:53.343Z,1014.24
2018-12-16T07:54:53.323Z,1014.28
2018-12-16T07:55:53.320Z,1014.24
2018-12-16T07:56:53.281Z,1014.28
2018-12-16T07:57:53.273Z,1014.25
2018-12-16T07:58:53.262Z,1014.30
2018-12-16T07:59:53.249Z,1014.25
2018-12-16T08:00:53.241Z,1014.25
2018-12-16T08:01:53.229Z,1014.18
2018-12-16T08:02:53.219Z,1014.17
2018-12-16T08:03:53.226Z,1014.17
2018-12-16T08:04:53.206Z,1014.16
2018-12-16T08:05:53.186Z,1014.10
2018-12-16T08:06:53.178Z,1014.09
2018-12-16T08:07:53.166Z,1014.04
2018-12-16T08:08:53.156Z,1014.07
2018-12-16T08:09:53.144Z,1014.09
2018-12-16T08:10:53.137Z,1014.10
2018-12-16T08:11:53.909Z,1014.05
2018-12-16T08:12:53.115Z,1014.07
2018-12-16T08:13:53.102Z,1014.09
2018-12-16T08:14:53.092Z,1014.04
2018-12-16T08:15:53.086Z,1014.05
2018-12-16T08:16:53.073Z,1013.99
2018-12-16T08:17:53.060Z,1014.02
2018-12-16T08:18:53.051Z,1014.06
2018-12-16T08:19:53.041Z,1014.04
2018-12-16T08:20:53.029Z,1014.03
2018-12-16T08:21:53.020Z,1014.03
2018-12-16T08:22:53.017Z,1013.96
2018-12-16T08:23:53.001Z,1013.98
2018-12-16T08:24:52.987Z,1013.89
2018-12-16T08:25:52.977Z,1013.95
2018-12-16T08:26:52.975Z,1013.89
2018-12-16T08:27:52.955Z,1013.93
2018-12-16T08:28:52.952Z,1013.91
2018-12-16T08:29:52.937Z,1013.90
2018-12-16T08:30:52.922Z,1013.91
2018-12-16T08:31:52.913Z,1013.97
2018-12-16T08:32:52.902Z,1013.95
2018-12-16T08:33:52.894Z,1013.99
2018-12-16T08:34:52.881Z,1013.95
2018-12-16T08:35:52.872Z,1013.95
2018-12-16T08:36:52.860Z,1013.92
2018-12-16T08:37:52.852Z,1013.95
2018-12-16T08:38:52.845Z,1014.02
2018-12-16T08:39:52.830Z,1013.96
2018-12-16T08:40:52.825Z,1013.99
2018-12-16T08:41:52.811Z,1013.96
2018-12-16T08:42:52.801Z,1013.98
2018-12-16T08:43:52.787Z,1014.04
2018-12-16T08:44:52.783Z,1014.02
2018-12-16T08:45:52.766Z,1014.02
2018-12-16T08:46:52.756Z,1014.03
2018-12-16T08:47:52.748Z,1014.07
2018-12-16T08:48:52.738Z,1014.06
2018-12-16T08:49:52.725Z,1014.02
2018-12-16T08:50:52.715Z,1014.05
2018-12-16T08:51:52.705Z,1014.04
2018-12-16T08:52:52.698Z,1014.06
2018-12-16T08:53:52.685Z,1014.12
2018-12-16T08:54:52.672Z,1014.06
2018-12-16T08:55:52.661Z,1014.11
2018-12-16T08:56:52.652Z,1014.03
2018-12-16T08:57:52.646Z,1014.01
2018-12-16T08:58:52.633Z,1014.02
2018-12-16T08:59:52.620Z,1013.99
2018-12-16T09:00:52.609Z,1013.98
2018-12-16T09:01:52.602Z,1013.99
2018-12-16T09:02:52.594Z,1013.96
2018-12-16T09:03:52.578Z,1013.94
2018-12-16T09:04:52.574Z,1014.01
2018-12-16T09:05:52.579Z,1013.93
2018-12-16T09:06:52.552Z,1013.87
2018-12-16T09:07:52.537Z,1013.94
2018-12-16T09:08:52.528Z,1013.90
2018-12-16T09:09:52.518Z,1013.90
2018-12-16T09:10:52.507Z,1013.91
2018-12-16T09:11:52.505Z,1013.90
2018-12-16T09:12:52.555Z,1013.85
2018-12-16T09:13:52.474Z,1013.83
2018-12-16T09:14:52.463Z,1013.80
2018-12-16T09:15:52.452Z,1013.71
2018-12-16T09:16:53.692Z,1013.77
2018-12-16T09:17:52.438Z,1013.76
2018-12-16T09:18:52.422Z,1013.74
2018-12-16T09:19:52.411Z,1013.73
2018-12-16T09:20:52.400Z,1013.69
2018-12-16T09:21:52.388Z,1013.72
2018-12-16T09:22:52.382Z,1013.68
2018-12-16T09:23:52.370Z,1013.66
2018-12-16T09:24:52.357Z,1013.60
2018-12-16T09:25:52.398Z,1013.56
2018-12-16T09:26:52.336Z,1013.55
2018-12-16T09:27:52.326Z,1013.57
2018-12-16T09:28:52.316Z,1013.60
2018-12-16T09:29:52.307Z,1013.53
2018-12-16T09:30:57.942Z,1013.50
2018-12-16T09:31:53.282Z,1013.52
2018-12-16T09:32:52.281Z,1013.50
2018-12-16T09:33:52.269Z,1013.44
2018-12-16T09:34:52.254Z,1013.45
2018-12-16T09:35:52.245Z,1013.44
2018-12-16T09:36:52.235Z,1013.49
2018-12-16T09:37:52.234Z,1013.48
2018-12-16T09:38:52.209Z,1013.41
2018-12-16T09:39:52.200Z,1013.40
2018-12-16T09:40:52.195Z,1013.39
2018-12-16T09:41:52.179Z,1013.35
2018-12-16T09:42:52.171Z,1013.31
2018-12-16T09:43:52.161Z,1013.29
2018-12-16T09:44:52.148Z,1013.32
2018-12-16T09:45:52.138Z,1013.26
2018-12-16T09:46:52.126Z,1013.26
2018-12-16T09:47:52.120Z,1013.18
2018-12-16T09:48:52.110Z,1013.19
2018-12-16T09:49:52.098Z,1013.19
2018-12-16T09:50:52.086Z,1013.16
2018-12-16T09:51:52.076Z,1013.18
2018-12-16T09:52:52.066Z,1013.16
2018-12-16T09:53:52.057Z,1013.18
2018-12-16T09:54:52.047Z,1013.16
2018-12-16T09:55:52.033Z,1013.15
2018-12-16T09:56:52.024Z,1013.13
2018-12-16T09:57:52.011Z,1013.12
2018-12-16T09:58:52.004Z,1013.07
2018-12-16T09:59:51.990Z,1013.02
2018-12-16T10:00:51.980Z,1013.01
2018-12-16T10:01:51.970Z,1012.95
2018-12-16T10:02:51.967Z,1012.96
2018-12-16T10:03:51.952Z,1012.96
2018-12-16T10:04:51.940Z,1012.92
2018-12-16T10:05:51.927Z,1012.91
2018-12-16T10:06:51.917Z,1012.93
2018-12-16T10:07:51.907Z,1012.91
2018-12-16T10:08:51.896Z,1012.98
2018-12-16T10:09:51.886Z,1012.93
2018-12-16T10:10:51.875Z,1012.88
2018-12-16T10:11:51.866Z,1012.87
2018-12-16T10:12:51.851Z,1012.90
2018-12-16T10:13:51.845Z,1012.92
2018-12-16T10:14:51.850Z,1012.88
2018-12-16T10:15:51.823Z,1012.89
2018-12-16T10:16:51.813Z,1012.88
2018-12-16T10:17:51.799Z,1012.87
2018-12-16T10:18:51.791Z,1012.89
2018-12-16T10:19:51.781Z,1012.85
2018-12-16T10:20:51.769Z,1012.88
2018-12-16T10:21:51.757Z,1012.86
2018-12-16T10:22:51.751Z,1012.84
2018-12-16T10:23:51.738Z,1012.89
2018-12-16T10:24:51.777Z,1012.90
2018-12-16T10:25:51.721Z,1012.89
2018-12-16T10:26:51.712Z,1012.86
2018-12-16T10:27:51.695Z,1012.83
2018-12-16T10:28:51.684Z,1012.85
2018-12-16T10:29:51.676Z,1012.88
2018-12-16T10:30:51.663Z,1012.84
2018-12-16T10:31:51.661Z,1012.83
2018-12-16T10:32:51.643Z,1012.85
2018-12-16T10:33:51.635Z,1012.81
2018-12-16T10:34:51.622Z,1012.82
2018-12-16T10:35:51.611Z,1012.77
2018-12-16T10:36:51.600Z,1012.77
2018-12-16T10:37:51.590Z,1012.76
2018-12-16T10:38:51.580Z,1012.81
2018-12-16T10:39:51.569Z,1012.73
2018-12-16T10:40:51.559Z,1012.71
2018-12-16T10:41:51.546Z,1012.69
2018-12-16T10:42:51.538Z,1012.65
2018-12-16T10:43:51.527Z,1012.66
2018-12-16T10:44:51.515Z,1012.62
2018-12-16T10:45:51.506Z,1012.61
2018-12-16T10:46:51.497Z,1012.66
2018-12-16T10:47:51.561Z,1012.66
2018-12-16T10:48:51.479Z,1012.65
2018-12-16T10:49:51.463Z,1012.66
2018-12-16T10:50:51.453Z,1012.61
2018-12-16T10:51:51.443Z,1012.64
2018-12-16T10:52:51.433Z,1012.63
2018-12-16T10:53:51.422Z,1012.59
2018-12-16T10:54:58.157Z,1012.61
2018-12-16T10:55:52.397Z,1012.54
2018-12-16T10:56:51.392Z,1012.57
2018-12-16T10:57:51.388Z,1012.51
2018-12-16T10:58:51.369Z,1012.50
2018-12-16T10:59:51.358Z,1012.45
2018-12-16T11:00:51.366Z,1012.51
2018-12-16T11:01:51.337Z,1012.51
2018-12-16T11:02:51.326Z,1012.44
2018-12-16T11:03:51.318Z,1012.38
2018-12-16T11:04:51.309Z,1012.35
2018-12-16T11:05:51.298Z,1012.32
2018-12-16T11:06:51.291Z,1012.33
2018-12-16T11:07:51.274Z,1012.32
2018-12-16T11:08:51.263Z,1012.29
2018-12-16T11:09:51.254Z,1012.26
2018-12-16T11:10:51.246Z,1012.29
2018-12-16T11:11:51.233Z,1012.30
2018-12-16T11:12:51.225Z,1012.27
2018-12-16T11:13:51.212Z,1012.27
2018-12-16T11:14:51.201Z,1012.29
2018-12-16T11:15:51.194Z,1012.28
2018-12-16T11:16:51.179Z,1012.20
2018-12-16T11:17:51.215Z,1012.16
2018-12-16T11:18:51.161Z,1012.20
2018-12-16T11:19:51.149Z,1012.15
2018-12-16T11:20:51.139Z,1012.17
2018-12-16T11:21:51.129Z,1012.13
2018-12-16T11:22:51.120Z,1012.17
2018-12-16T11:23:54.030Z,1012.19
2018-12-16T11:24:51.096Z,1012.20
2018-12-16T11:25:51.085Z,1012.16
2018-12-16T11:26:51.143Z,1012.15
2018-12-16T11:27:51.067Z,1012.12
2018-12-16T11:28:51.058Z,1012.11
2018-12-16T11:29:51.044Z,1012.02
2018-12-16T11:30:51.046Z,1012.07
2018-12-16T11:31:51.023Z,1011.96
2018-12-16T11:32:51.014Z,1012.00
2018-12-16T11:33:51.015Z,1012.01
2018-12-16T11:34:50.992Z,1011.97
2018-12-16T11:35:50.982Z,1011.96
2018-12-16T11:36:50.982Z,1011.93
2018-12-16T11:37:50.968Z,1011.97
2018-12-16T11:38:50.960Z,1011.96
2018-12-16T11:39:50.939Z,1011.93
2018-12-16T11:40:50.927Z,1011.96
2018-12-16T11:41:50.918Z,1011.97
2018-12-16T11:42:50.906Z,1011.99
2018-12-16T11:43:50.895Z,1011.97
2018-12-16T11:44:50.888Z,1011.93
2018-12-16T11:45:50.877Z,1011.97
2018-12-16T11:46:50.865Z,1011.94
2018-12-16T11:47:50.854Z,1011.87
2018-12-16T11:48:50.844Z,1011.87
2018-12-16T11:49:50.836Z,1011.86
2018-12-16T11:50:50.827Z,1011.83
2018-12-16T11:51:50.814Z,1011.83
2018-12-16T11:52:50.801Z,1011.85
2018-12-16T11:53:50.792Z,1011.79
2018-12-16T11:54:50.780Z,1011.80
2018-12-16T11:55:50.770Z,1011.76
2018-12-16T11:56:50.759Z,1011.71
2018-12-16T11:57:50.749Z,1011.70
2018-12-16T11:58:50.741Z,1011.66
2018-12-16T11:59:50.729Z,1011.63
2018-12-16T12:00:50.722Z,1011.61
2018-12-16T12:01:50.707Z,1011.59
2018-12-16T12:02:50.702Z,1011.64
2018-12-16T12:03:50.691Z,1011.65
2018-12-16T12:04:50.681Z,1011.61
2018-12-16T12:05:50.667Z,1011.59